sensor_id;sensor_type;location;lat;lon;timestamp;pressure;altitude;pressure_sealevel;temperature;humidity
16595;BME280;8410;52.532;13.336;2022-10-31T00:01:10;101372.25;;;16.54;92.52
16595;BME280;8410;52.532;13.336;2022-10-31T00:03:37;101377.41;;;16.64;92.01
16595;BME280;8410;52.532;13.336;2022-10-31T00:06:06;101380.88;;;16.73;91.63
16595;BME280;8410;52.532;13.336;2022-10-31T00:08:34;101378.31;;;16.63;91.49
16595;BME280;8410;52.532;13.336;2022-10-31T00:11:01;101385.25;;;16.45;91.86
16595;BME280;8410;52.532;13.336;2022-10-31T00:13:29;101386.13;;;16.47;92.41
16595;BME280;8410;52.532;13.336;2022-10-31T00:15:56;101382.66;;;16.47;92.99
16595;BME280;8410;52.532;13.336;2022-10-31T00:18:24;101388.69;;;16.57;91.95
16595;BME280;8410;52.532;13.336;2022-10-31T00:20:58;101394.81;;;16.39;92.52
16595;BME280;8410;52.532;13.336;2022-10-31T00:23:27;101393.06;;;16.47;91.89
16595;BME280;8410;52.532;13.336;2022-10-31T00:26:00;101395.63;;;16.58;91.53
16595;BME280;8410;52.532;13.336;2022-10-31T00:28:27;101393.03;;;16.48;92.17
16595;BME280;8410;52.532;13.336;2022-10-31T00:30:58;101393.94;;;16.44;92.18
16595;BME280;8410;52.532;13.336;2022-10-31T00:33:25;101390.47;;;16.36;93.17
16595;BME280;8410;52.532;13.336;2022-10-31T00:35:53;101397.38;;;16.36;93.21
16595;BME280;8410;52.532;13.336;2022-10-31T00:38:21;101393.03;;;16.41;92.50
16595;BME280;8410;52.532;13.336;2022-10-31T00:40:49;101392.19;;;16.49;92.60
16595;BME280;8410;52.532;13.336;2022-10-31T00:43:17;101407.75;;;16.43;91.81
16595;BME280;8410;52.532;13.336;2022-10-31T00:45:44;101403.44;;;16.35;92.52
16595;BME280;8410;52.532;13.336;2022-10-31T00:48:12;101404.31;;;16.41;92.61
16595;BME280;8410;52.532;13.336;2022-10-31T00:50:40;101400.84;;;16.42;92.88
16595;BME280;8410;52.532;13.336;2022-10-31T00:53:07;101399.97;;;16.46;92.38
16595;BME280;8410;52.532;13.336;2022-10-31T00:55:35;101413.84;;;16.45;91.55
16595;BME280;8410;52.532;13.336;2022-10-31T00:58:04;101414.69;;;16.35;92.43
16595;BME280;8410;52.532;13.336;2022-10-31T01:00:31;101406.94;;;16.30;92.14
16595;BME280;8410;52.532;13.336;2022-10-31T01:02:59;101421.66;;;16.36;92.95
16595;BME280;8410;52.532;13.336;2022-10-31T01:05:27;101417.31;;;16.34;92.64
16595;BME280;8410;52.532;13.336;2022-10-31T01:07:54;101424.25;;;16.13;93.04
16595;BME280;8410;52.532;13.336;2022-10-31T01:10:22;101423.38;;;16.22;92.52
16595;BME280;8410;52.532;13.336;2022-10-31T01:12:50;101422.50;;;16.27;93.60
16595;BME280;8410;52.532;13.336;2022-10-31T01:15:20;101421.63;;;16.35;92.47
16595;BME280;8410;52.532;13.336;2022-10-31T01:17:49;101423.38;;;16.28;92.67
16595;BME280;8410;52.532;13.336;2022-10-31T01:20:17;101421.66;;;16.18;92.52
16595;BME280;8410;52.532;13.336;2022-10-31T01:22:45;101435.50;;;16.04;92.79
16595;BME280;8410;52.532;13.336;2022-10-31T01:25:12;101435.47;;;15.98;94.30
16595;BME280;8410;52.532;13.336;2022-10-31T01:27:40;101429.44;;;16.10;93.97
16595;BME280;8410;52.532;13.336;2022-10-31T01:30:08;101424.25;;;16.15;93.25
16595;BME280;8410;52.532;13.336;2022-10-31T01:32:37;101423.38;;;16.22;92.31
16595;BME280;8410;52.532;13.336;2022-10-31T01:35:04;101422.50;;;16.14;92.73
16595;BME280;8410;52.532;13.336;2022-10-31T01:37:32;101425.97;;;16.13;93.05
16595;BME280;8410;52.532;13.336;2022-10-31T01:39:59;101428.56;;;16.25;91.69
16595;BME280;8410;52.532;13.336;2022-10-31T01:42:26;101427.69;;;16.17;91.44
16595;BME280;8410;52.532;13.336;2022-10-31T01:44:57;101435.50;;;16.10;92.87
16595;BME280;8410;52.532;13.336;2022-10-31T01:47:42;101419.91;;;16.20;91.74
16595;BME280;8410;52.532;13.336;2022-10-31T01:50:23;101426.84;;;16.21;91.51
16595;BME280;8410;52.532;13.336;2022-10-31T01:52:53;101440.69;;;16.14;92.47
16595;BME280;8410;52.532;13.336;2022-10-31T01:55:24;101432.88;;;16.27;91.68
16595;BME280;8410;52.532;13.336;2022-10-31T01:57:58;101435.50;;;16.26;91.16
16595;BME280;8410;52.532;13.336;2022-10-31T02:00:28;101438.94;;;16.22;91.24
16595;BME280;8410;52.532;13.336;2022-10-31T02:02:56;101438.09;;;16.24;89.13
16595;BME280;8410;52.532;13.336;2022-10-31T02:05:28;101438.94;;;16.00;90.47
16595;BME280;8410;52.532;13.336;2022-10-31T02:07:59;101440.69;;;16.10;90.02
16595;BME280;8410;52.532;13.336;2022-10-31T02:10:30;101434.63;;;16.04;90.91
16595;BME280;8410;52.532;13.336;2022-10-31T02:13:02;101433.75;;;16.00;90.76
16595;BME280;8410;52.532;13.336;2022-10-31T02:15:31;101444.13;;;15.94;91.15
16595;BME280;8410;52.532;13.336;2022-10-31T02:18:00;101447.59;;;15.93;91.11
16595;BME280;8410;52.532;13.336;2022-10-31T02:20:32;101442.41;;;15.92;91.99
16595;BME280;8410;52.532;13.336;2022-10-31T02:23:40;101440.69;;;15.97;90.94
16595;BME280;8410;52.532;13.336;2022-10-31T02:26:36;101442.41;;;15.93;90.78
16595;BME280;8410;52.532;13.336;2022-10-31T02:29:23;101437.19;;;15.85;91.33
16595;BME280;8410;52.532;13.336;2022-10-31T02:32:02;101434.59;;;15.90;91.40
16595;BME280;8410;52.532;13.336;2022-10-31T02:34:35;101439.81;;;15.82;91.64
16595;BME280;8410;52.532;13.336;2022-10-31T02:37:08;101435.38;;;15.64;93.02
16595;BME280;8410;52.532;13.336;2022-10-31T02:39:45;101433.72;;;15.76;92.02
16595;BME280;8410;52.532;13.336;2022-10-31T02:42:21;101437.16;;;15.69;92.29
16595;BME280;8410;52.532;13.336;2022-10-31T02:44:52;101442.34;;;15.69;92.91
16595;BME280;8410;52.532;13.336;2022-10-31T02:47:26;101450.16;;;15.78;92.05
16595;BME280;8410;52.532;13.336;2022-10-31T02:49:57;101445.88;;;15.91;92.38
16595;BME280;8410;52.532;13.336;2022-10-31T02:52:28;101452.78;;;16.08;90.61
16595;BME280;8410;52.532;13.336;2022-10-31T02:54:57;101452.81;;;16.07;89.77
16595;BME280;8410;52.532;13.336;2022-10-31T02:57:25;101448.50;;;16.12;89.63
16595;BME280;8410;52.532;13.336;2022-10-31T02:59:58;101460.56;;;15.88;89.76
16595;BME280;8410;52.532;13.336;2022-10-31T03:02:44;101456.25;;;15.86;90.50
16595;BME280;8410;52.532;13.336;2022-10-31T03:05:23;101467.47;;;15.79;89.70
16595;BME280;8410;52.532;13.336;2022-10-31T03:07:59;101462.19;;;15.57;91.13
16595;BME280;8410;52.532;13.336;2022-10-31T03:10:35;101469.97;;;15.57;90.96
16595;BME280;8410;52.532;13.336;2022-10-31T03:13:09;101467.38;;;15.63;92.33
16595;BME280;8410;52.532;13.336;2022-10-31T03:15:41;101470.03;;;15.70;90.89
16595;BME280;8410;52.532;13.336;2022-10-31T03:18:15;101469.09;;;15.55;91.68
16595;BME280;8410;52.532;13.336;2022-10-31T03:20:47;101467.31;;;15.47;91.33
16595;BME280;8410;52.532;13.336;2022-10-31T03:23:18;101473.38;;;15.47;91.75
16595;BME280;8410;52.532;13.336;2022-10-31T03:25:48;101473.44;;;15.59;91.55
16595;BME280;8410;52.532;13.336;2022-10-31T03:28:18;101470.06;;;15.73;90.48
16595;BME280;8410;52.532;13.336;2022-10-31T03:30:49;101477.78;;;15.62;91.03
16595;BME280;8410;52.532;13.336;2022-10-31T03:33:21;101485.53;;;15.63;90.66
16595;BME280;8410;52.532;13.336;2022-10-31T03:35:52;101497.78;;;15.83;89.77
16595;BME280;8410;52.532;13.336;2022-10-31T03:38:22;101498.63;;;15.85;89.34
16595;BME280;8410;52.532;13.336;2022-10-31T03:40:51;101498.66;;;15.96;89.90
16595;BME280;8410;52.532;13.336;2022-10-31T03:43:24;101496.03;;;15.82;89.73
16595;BME280;8410;52.532;13.336;2022-10-31T03:45:54;101497.78;;;15.92;89.49
16595;BME280;8410;52.532;13.336;2022-10-31T03:48:23;101496.91;;;15.90;89.23
16595;BME280;8410;52.532;13.336;2022-10-31T03:50:58;101494.34;;;15.93;89.42
16595;BME280;8410;52.532;13.336;2022-10-31T03:53:31;101502.97;;;15.89;89.23
16595;BME280;8410;52.532;13.336;2022-10-31T03:56:02;101507.31;;;15.95;89.71
16595;BME280;8410;52.532;13.336;2022-10-31T03:58:35;101502.06;;;15.79;88.72
16595;BME280;8410;52.532;13.336;2022-10-31T04:01:06;101505.53;;;15.75;89.53
16595;BME280;8410;52.532;13.336;2022-10-31T04:03:38;101508.16;;;15.89;90.42
16595;BME280;8410;52.532;13.336;2022-10-31T04:06:08;101509.00;;;15.82;89.86
16595;BME280;8410;52.532;13.336;2022-10-31T04:08:40;101499.50;;;15.75;91.23
16595;BME280;8410;52.532;13.336;2022-10-31T04:11:11;101511.63;;;15.88;90.01
16595;BME280;8410;52.532;13.336;2022-10-31T04:13:40;101509.91;;;15.92;89.59
16595;BME280;8410;52.532;13.336;2022-10-31T04:16:10;101505.59;;;15.94;89.22
16595;BME280;8410;52.532;13.336;2022-10-31T04:18:44;101514.22;;;15.86;88.88
16595;BME280;8410;52.532;13.336;2022-10-31T04:21:11;101516.78;;;15.82;89.96
16595;BME280;8410;52.532;13.336;2022-10-31T04:23:38;101512.47;;;15.84;89.93
16595;BME280;8410;52.532;13.336;2022-10-31T04:26:07;101519.41;;;15.77;89.77
16595;BME280;8410;52.532;13.336;2022-10-31T04:28:35;101520.25;;;15.78;90.12
16595;BME280;8410;52.532;13.336;2022-10-31T04:31:03;101520.25;;;15.78;89.76
16595;BME280;8410;52.532;13.336;2022-10-31T04:33:30;101519.41;;;15.77;90.24
16595;BME280;8410;52.532;13.336;2022-10-31T04:35:59;101528.94;;;15.83;89.93
16595;BME280;8410;52.532;13.336;2022-10-31T04:38:26;101523.69;;;15.74;90.18
16595;BME280;8410;52.532;13.336;2022-10-31T04:40:53;101525.41;;;15.69;90.38
16595;BME280;8410;52.532;13.336;2022-10-31T04:43:21;101527.03;;;15.54;89.38
16595;BME280;8410;52.532;13.336;2022-10-31T04:45:48;101521.97;;;15.76;90.77
16595;BME280;8410;52.532;13.336;2022-10-31T04:48:16;101525.41;;;15.69;89.51
16595;BME280;8410;52.532;13.336;2022-10-31T04:50:43;101524.56;;;15.79;90.42
16595;BME280;8410;52.532;13.336;2022-10-31T04:53:12;101525.34;;;15.59;90.75
16595;BME280;8410;52.532;13.336;2022-10-31T04:55:39;101527.94;;;15.56;90.66
16595;BME280;8410;52.532;13.336;2022-10-31T04:58:07;101525.47;;;15.84;89.86
16595;BME280;8410;52.532;13.336;2022-10-31T05:00:34;101523.75;;;15.83;89.40
16595;BME280;8410;52.532;13.336;2022-10-31T05:03:02;101528.75;;;15.52;89.20
16595;BME280;8410;52.532;13.336;2022-10-31T05:05:31;101534.84;;;15.54;91.81
16595;BME280;8410;52.532;13.336;2022-10-31T05:07:58;101527.97;;;15.64;90.63
16595;BME280;8410;52.532;13.336;2022-10-31T05:10:29;101535.72;;;15.62;91.02
16595;BME280;8410;52.532;13.336;2022-10-31T05:12:58;101527.06;;;15.60;91.13
16595;BME280;8410;52.532;13.336;2022-10-31T05:15:27;101528.81;;;15.64;90.68
16595;BME280;8410;52.532;13.336;2022-10-31T05:17:55;101534.03;;;15.68;90.03
16595;BME280;8410;52.532;13.336;2022-10-31T05:20:25;101535.72;;;15.62;89.95
16595;BME280;8410;52.532;13.336;2022-10-31T05:22:54;101534.00;;;15.61;90.70
16595;BME280;8410;52.532;13.336;2022-10-31T05:25:23;101538.25;;;15.50;90.38
16595;BME280;8410;52.532;13.336;2022-10-31T05:27:55;101535.72;;;15.53;90.43
16595;BME280;8410;52.532;13.336;2022-10-31T05:30:24;101542.47;;;15.28;90.70
16595;BME280;8410;52.532;13.336;2022-10-31T05:32:53;101546.09;;;15.58;90.87
16595;BME280;8410;52.532;13.336;2022-10-31T05:35:23;101547.81;;;15.60;90.48
16595;BME280;8410;52.532;13.336;2022-10-31T05:37:51;101547.69;;;15.33;90.53
16595;BME280;8410;52.532;13.336;2022-10-31T05:40:19;101542.63;;;15.57;90.14
16595;BME280;8410;52.532;13.336;2022-10-31T05:42:50;101546.09;;;15.56;89.80
16595;BME280;8410;52.532;13.336;2022-10-31T05:45:20;101553.00;;;15.57;91.01
16595;BME280;8410;52.532;13.336;2022-10-31T05:47:52;101550.44;;;15.56;91.01
16595;BME280;8410;52.532;13.336;2022-10-31T05:50:20;101546.09;;;15.56;90.77
16595;BME280;8410;52.532;13.336;2022-10-31T05:52:53;101541.75;;;15.51;91.23
16595;BME280;8410;52.532;13.336;2022-10-31T05:55:21;101548.75;;;15.69;90.51
16595;BME280;8410;52.532;13.336;2022-10-31T05:57:48;101559.06;;;15.53;90.52
16595;BME280;8410;52.532;13.336;2022-10-31T06:00:16;101554.72;;;15.52;90.58
16595;BME280;8410;52.532;13.336;2022-10-31T06:02:44;101559.97;;;15.64;90.34
16595;BME280;8410;52.532;13.336;2022-10-31T06:05:12;101561.78;;;15.76;89.22
16595;BME280;8410;52.532;13.336;2022-10-31T06:07:40;101561.75;;;15.69;90.75
16595;BME280;8410;52.532;13.336;2022-10-31T06:10:08;101563.38;;;15.51;91.69
16595;BME280;8410;52.532;13.336;2022-10-31T06:12:36;101560.03;;;15.69;90.42
16595;BME280;8410;52.532;13.336;2022-10-31T06:15:05;101570.41;;;15.71;89.92
16595;BME280;8410;52.532;13.336;2022-10-31T06:17:33;101569.44;;;15.55;90.80
16595;BME280;8410;52.532;13.336;2022-10-31T06:20:03;101570.47;;;15.83;89.70
16595;BME280;8410;52.532;13.336;2022-10-31T06:22:31;101566.97;;;15.75;91.02
16595;BME280;8410;52.532;13.336;2022-10-31T06:24:59;101573.03;;;15.78;90.75
16595;BME280;8410;52.532;13.336;2022-10-31T06:27:26;101570.50;;;15.91;90.06
16595;BME280;8410;52.532;13.336;2022-10-31T06:29:54;101578.28;;;15.95;90.44
16595;BME280;8410;52.532;13.336;2022-10-31T06:32:21;101579.13;;;15.86;90.56
16595;BME280;8410;52.532;13.336;2022-10-31T06:34:49;101581.72;;;15.86;90.47
16595;BME280;8410;52.532;13.336;2022-10-31T06:37:18;101581.72;;;15.86;90.58
16595;BME280;8410;52.532;13.336;2022-10-31T06:39:45;101586.09;;;15.98;89.79
16595;BME280;8410;52.532;13.336;2022-10-31T06:42:15;101591.25;;;15.80;90.57
16595;BME280;8410;52.532;13.336;2022-10-31T06:44:42;101582.66;;;15.99;89.03
16595;BME280;8410;52.532;13.336;2022-10-31T06:47:09;101592.19;;;16.08;88.98
16595;BME280;8410;52.532;13.336;2022-10-31T06:49:37;101589.63;;;16.19;88.49
16595;BME280;8410;52.532;13.336;2022-10-31T06:52:05;101593.06;;;16.12;89.03
16595;BME280;8410;52.532;13.336;2022-10-31T06:54:33;101600.00;;;16.13;88.49
16595;BME280;8410;52.532;13.336;2022-10-31T06:57:01;101605.06;;;15.85;90.90
16595;BME280;8410;52.532;13.336;2022-10-31T06:59:28;101608.63;;;16.02;90.39
16595;BME280;8410;52.532;13.336;2022-10-31T07:01:57;101610.41;;;16.16;89.80
16595;BME280;8410;52.532;13.336;2022-10-31T07:04:24;101615.66;;;16.34;89.04
16595;BME280;8410;52.532;13.336;2022-10-31T07:06:52;101605.25;;;16.36;88.15
16595;BME280;8410;52.532;13.336;2022-10-31T07:09:19;101611.34;;;16.45;88.47
16595;BME280;8410;52.532;13.336;2022-10-31T07:11:48;101608.72;;;16.30;88.52
16595;BME280;8410;52.532;13.336;2022-10-31T07:14:15;101608.69;;;16.18;89.26
16595;BME280;8410;52.532;13.336;2022-10-31T07:16:43;101613.91;;;16.24;89.38
16595;BME280;8410;52.532;13.336;2022-10-31T07:19:10;101619.94;;;16.18;90.43
16595;BME280;8410;52.532;13.336;2022-10-31T07:21:38;101619.03;;;16.08;91.29
16595;BME280;8410;52.532;13.336;2022-10-31T07:24:05;101620.50;;;15.63;92.33
16595;BME280;8410;52.532;13.336;2022-10-31T07:26:33;101613.81;;;15.96;93.87
16595;BME280;8410;52.532;13.336;2022-10-31T07:29:01;101616.44;;;16.08;90.99
16595;BME280;8410;52.532;13.336;2022-10-31T07:31:29;101614.78;;;16.35;90.91
16595;BME280;8410;52.532;13.336;2022-10-31T07:33:56;101620.81;;;16.25;92.13
16595;BME280;8410;52.532;13.336;2022-10-31T07:36:24;101631.91;;;15.78;93.21
16595;BME280;8410;52.532;13.336;2022-10-31T07:38:51;101621.63;;;16.02;94.75
16595;BME280;8410;52.532;13.336;2022-10-31T07:41:18;101622.59;;;16.38;92.54
16595;BME280;8410;52.532;13.336;2022-10-31T07:43:46;101629.66;;;16.79;90.52
16595;BME280;8410;52.532;13.336;2022-10-31T07:46:15;101629.53;;;16.36;91.67
16595;BME280;8410;52.532;13.336;2022-10-31T07:48:42;101629.53;;;16.39;92.50
16595;BME280;8410;52.532;13.336;2022-10-31T07:51:10;101637.25;;;16.18;92.18
16595;BME280;8410;52.532;13.336;2022-10-31T07:53:37;101637.19;;;15.99;95.98
16595;BME280;8410;52.532;13.336;2022-10-31T07:56:05;101649.41;;;16.20;93.32
16595;BME280;8410;52.532;13.336;2022-10-31T07:58:32;101645.16;;;16.56;90.94
16595;BME280;8410;52.532;13.336;2022-10-31T08:01:00;101649.47;;;16.45;91.04
16595;BME280;8410;52.532;13.336;2022-10-31T08:03:28;101652.06;;;16.40;90.69
16595;BME280;8410;52.532;13.336;2022-10-31T08:05:56;101656.44;;;16.55;90.63
16595;BME280;8410;52.532;13.336;2022-10-31T08:08:24;101652.19;;;16.88;88.77
16595;BME280;8410;52.532;13.336;2022-10-31T08:10:58;101654.69;;;16.52;91.89
16595;BME280;8410;52.532;13.336;2022-10-31T08:13:26;101659.00;;;16.41;90.76
16595;BME280;8410;52.532;13.336;2022-10-31T08:15:53;101648.63;;;16.47;90.56
16595;BME280;8410;52.532;13.336;2022-10-31T08:18:21;101660.56;;;15.99;93.50
16595;BME280;8410;52.532;13.336;2022-10-31T08:20:51;101663.13;;;15.95;95.01
16595;BME280;8410;52.532;13.336;2022-10-31T08:23:18;101667.56;;;16.16;92.78
16595;BME280;8410;52.532;13.336;2022-10-31T08:25:46;101665.94;;;16.48;91.86
16595;BME280;8410;52.532;13.336;2022-10-31T08:28:14;101675.41;;;16.26;93.20
16595;BME280;8410;52.532;13.336;2022-10-31T08:30:41;101676.25;;;16.27;91.90
16595;BME280;8410;52.532;13.336;2022-10-31T08:33:11;101671.03;;;16.18;92.21
16595;BME280;8410;52.532;13.336;2022-10-31T08:35:39;101668.22;;;15.76;93.96
16595;BME280;8410;52.532;13.336;2022-10-31T08:38:10;101670.94;;;15.99;93.20
16595;BME280;8410;52.532;13.336;2022-10-31T08:40:38;101667.47;;;15.97;94.59
16595;BME280;8410;52.532;13.336;2022-10-31T08:43:08;101657.25;;;16.37;92.19
16595;BME280;8410;52.532;13.336;2022-10-31T08:45:37;101660.63;;;16.22;91.61
16595;BME280;8410;52.532;13.336;2022-10-31T08:48:08;101651.31;;;16.86;90.42
16595;BME280;8410;52.532;13.336;2022-10-31T08:50:36;101653.06;;;17.10;88.58
16595;BME280;8410;52.532;13.336;2022-10-31T08:53:06;101656.50;;;16.96;88.16
16595;BME280;8410;52.532;13.336;2022-10-31T08:55:36;101658.06;;;16.27;91.40
16595;BME280;8410;52.532;13.336;2022-10-31T08:58:05;101672.59;;;15.85;93.46
16595;BME280;8410;52.532;13.336;2022-10-31T09:00:33;101658.94;;;16.23;93.04
16595;BME280;8410;52.532;13.336;2022-10-31T09:03:04;101659.75;;;16.06;92.38
16595;BME280;8410;52.532;13.336;2022-10-31T09:05:32;101664.19;;;16.46;93.71
16595;BME280;8410;52.532;13.336;2022-10-31T09:08:02;101667.81;;;16.89;90.56
16595;BME280;8410;52.532;13.336;2022-10-31T09:10:31;101667.78;;;16.82;91.12
16595;BME280;8410;52.532;13.336;2022-10-31T09:13:02;101676.31;;;16.39;93.04
16595;BME280;8410;52.532;13.336;2022-10-31T09:15:33;101680.69;;;16.54;92.51
16595;BME280;8410;52.532;13.336;2022-10-31T09:18:01;101677.94;;;16.06;94.25
16595;BME280;8410;52.532;13.336;2022-10-31T09:20:30;101679.84;;;16.66;99.88
16595;BME280;8410;52.532;13.336;2022-10-31T09:22:58;101665.13;;;17.69;94.26
16595;BME280;8410;52.532;13.336;2022-10-31T09:25:26;101672.97;;;17.81;92.05
16595;BME280;8410;52.532;13.336;2022-10-31T09:27:58;101679.06;;;17.47;93.10
16595;BME280;8410;52.532;13.336;2022-10-31T09:30:30;101684.28;;;17.51;92.66
16595;BME280;8410;52.532;13.336;2022-10-31T09:32:58;101684.28;;;17.25;93.83
16595;BME280;8410;52.532;13.336;2022-10-31T09:35:27;101674.69;;;17.82;91.40
16595;BME280;8410;52.532;13.336;2022-10-31T09:37:55;101679.91;;;17.79;90.99
16595;BME280;8410;52.532;13.336;2022-10-31T09:40:25;101683.31;;;18.03;89.71
16595;BME280;8410;52.532;13.336;2022-10-31T09:42:59;101679.81;;;18.13;89.26
16595;BME280;8410;52.532;13.336;2022-10-31T09:45:32;101690.25;;;18.07;88.81
16595;BME280;8410;52.532;13.336;2022-10-31T09:48:17;101690.88;;;18.60;86.15
16595;BME280;8410;52.532;13.336;2022-10-31T09:50:52;101693.44;;;18.69;86.58
16595;BME280;8410;52.532;13.336;2022-10-31T09:53:25;101688.44;;;18.29;86.48
16595;BME280;8410;52.532;13.336;2022-10-31T09:55:53;101690.94;;;18.49;85.96
16595;BME280;8410;52.532;13.336;2022-10-31T09:58:24;101682.38;;;18.24;86.85
16595;BME280;8410;52.532;13.336;2022-10-31T10:00:57;101693.75;;;17.77;87.11
16595;BME280;8410;52.532;13.336;2022-10-31T10:03:31;101685.03;;;18.13;88.06
16595;BME280;8410;52.532;13.336;2022-10-31T10:06:06;101678.69;;;18.65;86.16
16595;BME280;8410;52.532;13.336;2022-10-31T10:08:36;101680.38;;;18.80;84.24
16595;BME280;8410;52.532;13.336;2022-10-31T10:11:14;101687.34;;;18.78;84.28
16595;BME280;8410;52.532;13.336;2022-10-31T10:13:56;101681.16;;;18.91;83.53
16595;BME280;8410;52.532;13.336;2022-10-31T10:16:36;101676.00;;;18.85;83.71
16595;BME280;8410;52.532;13.336;2022-10-31T10:19:17;101670.03;;;18.57;85.53
16595;BME280;8410;52.532;13.336;2022-10-31T10:21:52;101675.91;;;18.94;84.40
16595;BME280;8410;52.532;13.336;2022-10-31T10:24:31;101675.31;;;18.46;85.00
16595;BME280;8410;52.532;13.336;2022-10-31T10:27:09;101670.84;;;18.69;84.64
16595;BME280;8410;52.532;13.336;2022-10-31T10:29:50;101664.69;;;18.81;83.91
16595;BME280;8410;52.532;13.336;2022-10-31T10:32:24;101666.28;;;19.04;83.29
16595;BME280;8410;52.532;13.336;2022-10-31T10:34:54;101668.78;;;19.17;82.53
16595;BME280;8410;52.532;13.336;2022-10-31T10:37:29;101663.63;;;19.11;83.31
16595;BME280;8410;52.532;13.336;2022-10-31T10:40:06;101655.03;;;18.94;83.37
16595;BME280;8410;52.532;13.336;2022-10-31T10:42:35;101652.38;;;19.00;83.27
16595;BME280;8410;52.532;13.336;2022-10-31T10:45:20;101651.50;;;19.00;82.63
16595;BME280;8410;52.532;13.336;2022-10-31T10:48:14;101645.34;;;19.08;84.02
16595;BME280;8410;52.532;13.336;2022-10-31T10:50:47;101653.19;;;19.11;83.07
16595;BME280;8410;52.532;13.336;2022-10-31T10:53:25;101648.69;;;19.27;83.32
16595;BME280;8410;52.532;13.336;2022-10-31T10:56:10;101659.50;;;18.72;85.52
16595;BME280;8410;52.532;13.336;2022-10-31T10:58:40;101654.59;;;19.43;83.59
16595;BME280;8410;52.532;13.336;2022-10-31T11:01:11;101652.25;;;19.15;82.80
16595;BME280;8410;52.532;13.336;2022-10-31T11:03:45;101650.56;;;19.08;84.16
16595;BME280;8410;52.532;13.336;2022-10-31T11:06:17;101654.69;;;19.34;82.72
16595;BME280;8410;52.532;13.336;2022-10-31T11:08:48;101647.66;;;19.42;83.68
16595;BME280;8410;52.532;13.336;2022-10-31T11:11:24;101638.84;;;19.52;82.04
16595;BME280;8410;52.532;13.336;2022-10-31T11:13:57;101646.63;;;19.60;82.17
16595;BME280;8410;52.532;13.336;2022-10-31T11:16:32;101644.63;;;18.89;83.24
16595;BME280;8410;52.532;13.336;2022-10-31T11:19:13;101643.66;;;19.03;83.52
16595;BME280;8410;52.532;13.336;2022-10-31T11:21:43;101636.13;;;18.61;84.79
16595;BME280;8410;52.532;13.336;2022-10-31T11:24:20;101634.56;;;18.26;88.28
16595;BME280;8410;52.532;13.336;2022-10-31T11:26:49;101635.81;;;19.04;85.40
16595;BME280;8410;52.532;13.336;2022-10-31T11:29:21;101635.94;;;18.90;84.96
16595;BME280;8410;52.532;13.336;2022-10-31T11:31:53;101638.59;;;18.83;86.12
16595;BME280;8410;52.532;13.336;2022-10-31T11:34:29;101636.03;;;18.80;86.20
16595;BME280;8410;52.532;13.336;2022-10-31T11:37:04;101634.03;;;19.09;85.98
16595;BME280;8410;52.532;13.336;2022-10-31T11:39:40;101626.91;;;19.27;84.01
16595;BME280;8410;52.532;13.336;2022-10-31T11:42:08;101630.84;;;18.67;87.61
16595;BME280;8410;52.532;13.336;2022-10-31T11:44:36;101639.47;;;18.82;86.54
16595;BME280;8410;52.532;13.336;2022-10-31T11:47:05;101636.19;;;18.49;87.10
16595;BME280;8410;52.532;13.336;2022-10-31T11:49:37;101636.38;;;18.12;88.91
16595;BME280;8410;52.532;13.336;2022-10-31T11:52:08;101629.84;;;18.88;86.76
16595;BME280;8410;52.532;13.336;2022-10-31T11:54:46;101635.84;;;19.01;85.29
16595;BME280;8410;52.532;13.336;2022-10-31T11:57:22;101638.41;;;19.09;84.84
16595;BME280;8410;52.532;13.336;2022-10-31T11:59:52;101627.16;;;18.99;85.21
16595;BME280;8410;52.532;13.336;2022-10-31T12:02:20;101630.84;;;18.67;86.60
16595;BME280;8410;52.532;13.336;2022-10-31T12:04:56;101623.22;;;18.37;87.11
16595;BME280;8410;52.532;13.336;2022-10-31T12:07:25;101630.88;;;18.64;87.43
16595;BME280;8410;52.532;13.336;2022-10-31T12:09:52;101623.13;;;18.54;88.19
16595;BME280;8410;52.532;13.336;2022-10-31T12:12:41;101622.97;;;18.73;88.37
16595;BME280;8410;52.532;13.336;2022-10-31T12:15:24;101614.72;;;19.29;84.01
16595;BME280;8410;52.532;13.336;2022-10-31T12:18:05;101618.34;;;19.12;86.08
16595;BME280;8410;52.532;13.336;2022-10-31T12:20:46;101618.44;;;19.00;85.31
16595;BME280;8410;52.532;13.336;2022-10-31T12:23:26;101611.25;;;19.27;85.56
16595;BME280;8410;52.532;13.336;2022-10-31T12:26:04;101612.63;;;19.61;83.32
16595;BME280;8410;52.532;13.336;2022-10-31T12:28:43;101597.09;;;19.49;84.26
16595;BME280;8410;52.532;13.336;2022-10-31T12:31:34;101597.22;;;19.37;84.75
16595;BME280;8410;52.532;13.336;2022-10-31T12:34:22;101590.00;;;19.60;84.13
16595;BME280;8410;52.532;13.336;2022-10-31T12:37:00;101606.28;;;18.99;85.64
16595;BME280;8410;52.532;13.336;2022-10-31T12:39:39;101596.13;;;18.61;88.38
16595;BME280;8410;52.532;13.336;2022-10-31T12:42:16;101595.88;;;18.96;87.18
16595;BME280;8410;52.532;13.336;2022-10-31T12:45:00;101586.06;;;19.23;86.14
16595;BME280;8410;52.532;13.336;2022-10-31T12:47:44;101582.91;;;19.75;84.15
16595;BME280;8410;52.532;13.336;2022-10-31T12:50:23;101585.06;;;19.36;84.99
16595;BME280;8410;52.532;13.336;2022-10-31T12:53:10;101590.94;;;19.53;84.42
16595;BME280;8410;52.532;13.336;2022-10-31T12:55:47;101584.94;;;19.47;84.45
16595;BME280;8410;52.532;13.336;2022-10-31T12:58:21;101591.34;;;19.15;85.35
16595;BME280;8410;52.532;13.336;2022-10-31T13:01:06;101598.44;;;19.02;86.01
16595;BME280;8410;52.532;13.336;2022-10-31T13:03:41;101589.78;;;18.99;87.77
16595;BME280;8410;52.532;13.336;2022-10-31T13:06:14;101593.22;;;19.02;86.55
16595;BME280;8410;52.532;13.336;2022-10-31T13:08:49;101574.78;;;19.21;86.12
16595;BME280;8410;52.532;13.336;2022-10-31T13:11:22;101576.41;;;19.31;85.34